MCO weather

Orlando International Airport
Orlando, Florida, United States

Public forecast

Using degrees Fahrenheit for public forecast. Weather courtesy of forecast.io.

METAR (pilot weather report)

Retrieved 2018/01/20 15:53 UTC (41 minutes ago):

KMCO 201553Z 00000KT 10SM SCT120 BKN250 19/09 A3031 RMK AO2 SLP264 T01890094

TAF (pilot weather forecast)

Retrieved 2018/01/20 12:34 UTC (4 hours ago):

TAF KMCO 201132Z 2012/2118 36005KT P6SM BKN250 FM201600 07005KT P6SM FEW040 BKN120 FM210200 04003KT P6SM BKN100 FM211500 09009KT P6SM SCT035